KSLK/SLK METAR and TAF weather

Enter ICAO airport designator
Station Type Date Time Source
KSLK METAR 2019/09/20 19:51 UTC NOAA

KSLK 201951Z AUTO 23007KT 10SM CLR 23/08 A3016 RMK AO2 SLP216 T02330078


Station Type Date Time Source
KSLK Decoded METAR 2019/09/20 19:51 UTC NOAA

ADIRONDACK REGIONAL AIRPORT, NY, United States (KSLK) 44-24N 074-12W 498M
Sep 20, 2019 - 03:51 PM EDT / 2019.09.20 1951 UTC
Wind: from the SW (230 degrees) at 8 MPH (7 KT):0
Visibility: 10 mile(s):0
Sky conditions: clear
Temperature: 73.9 F (23.3 C)
Dew Point: 46.0 F (7.8 C)
Relative Humidity: 36%
Pressure (altimeter): 30.16 in. Hg (1021 hPa)
ob: KSLK 201951Z AUTO 23007KT 10SM CLR 23/08 A3016 RMK AO2 SLP216 T02330078
cycle: 20

Station Type Date Time Source
KSLK TAF 2019/09/20 18:22 UTC NOAA

TAF KSLK 201720Z 2018/2118 25004KT P6SM FEW150
FM210700 00000KT 1/4SM FG OVC001
FM211200 00000KT P6SM FEW150

Example: see airport list